sensor_id;sensor_type;location;lat;lon;timestamp;temperature;humidity
9410;DHT22;4744;52.576;13.568;2022-07-10T00:00:16;13.10;1.00
9410;DHT22;4744;52.576;13.568;2022-07-10T00:02:46;13.10;1.00
9410;DHT22;4744;52.576;13.568;2022-07-10T00:05:13;13.10;1.00
9410;DHT22;4744;52.576;13.568;2022-07-10T00:07:40;13.10;1.00
9410;DHT22;4744;52.576;13.568;2022-07-10T00:10:07;13.10;1.00
9410;DHT22;4744;52.576;13.568;2022-07-10T00:12:34;13.10;1.00
9410;DHT22;4744;52.576;13.568;2022-07-10T00:15:02;13.10;1.00
9410;DHT22;4744;52.576;13.568;2022-07-10T00:17:29;13.10;1.00
9410;DHT22;4744;52.576;13.568;2022-07-10T00:19:56;13.20;1.00
9410;DHT22;4744;52.576;13.568;2022-07-10T00:22:23;13.20;1.00
9410;DHT22;4744;52.576;13.568;2022-07-10T00:24:50;13.20;1.00
9410;DHT22;4744;52.576;13.568;2022-07-10T00:27:18;13.20;1.00
9410;DHT22;4744;52.576;13.568;2022-07-10T00:29:45;13.30;1.00
9410;DHT22;4744;52.576;13.568;2022-07-10T00:32:13;13.30;1.00
9410;DHT22;4744;52.576;13.568;2022-07-10T00:34:40;13.30;1.00
9410;DHT22;4744;52.576;13.568;2022-07-10T00:37:07;13.30;1.00
9410;DHT22;4744;52.576;13.568;2022-07-10T00:39:34;13.30;1.00
9410;DHT22;4744;52.576;13.568;2022-07-10T00:42:08;13.40;1.00
9410;DHT22;4744;52.576;13.568;2022-07-10T00:44:35;13.40;1.00
9410;DHT22;4744;52.576;13.568;2022-07-10T00:47:03;13.40;1.00
9410;DHT22;4744;52.576;13.568;2022-07-10T00:49:31;13.40;1.00
9410;DHT22;4744;52.576;13.568;2022-07-10T00:52:00;13.40;1.00
9410;DHT22;4744;52.576;13.568;2022-07-10T00:54:28;13.40;1.00
9410;DHT22;4744;52.576;13.568;2022-07-10T00:56:56;13.40;1.00
9410;DHT22;4744;52.576;13.568;2022-07-10T00:59:24;13.40;1.00
9410;DHT22;4744;52.576;13.568;2022-07-10T01:01:51;13.40;1.00
9410;DHT22;4744;52.576;13.568;2022-07-10T01:04:18;13.40;1.00
9410;DHT22;4744;52.576;13.568;2022-07-10T01:06:47;13.40;1.00
9410;DHT22;4744;52.576;13.568;2022-07-10T01:09:13;13.40;1.00
9410;DHT22;4744;52.576;13.568;2022-07-10T01:11:40;13.40;1.00
9410;DHT22;4744;52.576;13.568;2022-07-10T01:14:07;13.40;1.00
9410;DHT22;4744;52.576;13.568;2022-07-10T01:16:34;13.50;1.00
9410;DHT22;4744;52.576;13.568;2022-07-10T01:19:01;13.50;1.00
9410;DHT22;4744;52.576;13.568;2022-07-10T01:21:31;13.50;1.00
9410;DHT22;4744;52.576;13.568;2022-07-10T01:23:58;13.50;1.00
9410;DHT22;4744;52.576;13.568;2022-07-10T01:26:26;13.50;1.00
9410;DHT22;4744;52.576;13.568;2022-07-10T01:28:54;13.50;1.00
9410;DHT22;4744;52.576;13.568;2022-07-10T01:31:24;13.50;1.00
9410;DHT22;4744;52.576;13.568;2022-07-10T01:33:52;13.50;1.00
9410;DHT22;4744;52.576;13.568;2022-07-10T01:36:19;13.50;1.00
9410;DHT22;4744;52.576;13.568;2022-07-10T01:38:48;13.50;1.00
9410;DHT22;4744;52.576;13.568;2022-07-10T01:41:17;13.40;1.00
9410;DHT22;4744;52.576;13.568;2022-07-10T01:43:44;13.50;1.00
9410;DHT22;4744;52.576;13.568;2022-07-10T01:46:11;13.50;1.00
9410;DHT22;4744;52.576;13.568;2022-07-10T01:48:39;13.50;1.00
9410;DHT22;4744;52.576;13.568;2022-07-10T01:51:06;13.50;1.00
9410;DHT22;4744;52.576;13.568;2022-07-10T01:53:33;13.50;1.00
9410;DHT22;4744;52.576;13.568;2022-07-10T01:56:04;13.50;1.00
9410;DHT22;4744;52.576;13.568;2022-07-10T01:58:31;13.50;1.00
9410;DHT22;4744;52.576;13.568;2022-07-10T02:00:58;13.50;1.00
9410;DHT22;4744;52.576;13.568;2022-07-10T02:03:25;13.50;1.00
9410;DHT22;4744;52.576;13.568;2022-07-10T02:06:09;13.40;1.00
9410;DHT22;4744;52.576;13.568;2022-07-10T02:08:36;13.50;1.00
9410;DHT22;4744;52.576;13.568;2022-07-10T02:11:04;13.50;1.00
9410;DHT22;4744;52.576;13.568;2022-07-10T02:13:31;13.50;1.00
9410;DHT22;4744;52.576;13.568;2022-07-10T02:15:58;13.50;1.00
9410;DHT22;4744;52.576;13.568;2022-07-10T02:18:25;13.50;1.00
9410;DHT22;4744;52.576;13.568;2022-07-10T02:20:53;13.50;1.00
9410;DHT22;4744;52.576;13.568;2022-07-10T02:23:19;13.50;1.00
9410;DHT22;4744;52.576;13.568;2022-07-10T02:25:46;13.50;1.00
9410;DHT22;4744;52.576;13.568;2022-07-10T02:28:14;13.50;1.00
9410;DHT22;4744;52.576;13.568;2022-07-10T02:30:42;13.50;1.00
9410;DHT22;4744;52.576;13.568;2022-07-10T02:33:08;13.40;1.00
9410;DHT22;4744;52.576;13.568;2022-07-10T02:35:35;13.40;1.00
9410;DHT22;4744;52.576;13.568;2022-07-10T02:38:02;13.40;1.00
9410;DHT22;4744;52.576;13.568;2022-07-10T02:40:29;13.40;1.00
9410;DHT22;4744;52.576;13.568;2022-07-10T02:42:56;13.40;1.00
9410;DHT22;4744;52.576;13.568;2022-07-10T02:45:24;13.40;1.00
9410;DHT22;4744;52.576;13.568;2022-07-10T02:47:51;13.40;1.00
9410;DHT22;4744;52.576;13.568;2022-07-10T02:50:18;13.40;1.00
9410;DHT22;4744;52.576;13.568;2022-07-10T02:52:44;13.40;1.00
9410;DHT22;4744;52.576;13.568;2022-07-10T02:55:11;13.40;1.00
9410;DHT22;4744;52.576;13.568;2022-07-10T02:57:38;13.40;1.00
9410;DHT22;4744;52.576;13.568;2022-07-10T03:00:06;13.40;1.00
9410;DHT22;4744;52.576;13.568;2022-07-10T03:02:34;13.40;1.00
9410;DHT22;4744;52.576;13.568;2022-07-10T03:05:01;13.40;1.00
9410;DHT22;4744;52.576;13.568;2022-07-10T03:07:28;13.40;1.00
9410;DHT22;4744;52.576;13.568;2022-07-10T03:09:55;13.30;1.00
9410;DHT22;4744;52.576;13.568;2022-07-10T03:12:21;13.30;1.00
9410;DHT22;4744;52.576;13.568;2022-07-10T03:14:48;13.30;1.00
9410;DHT22;4744;52.576;13.568;2022-07-10T03:17:15;13.30;1.00
9410;DHT22;4744;52.576;13.568;2022-07-10T03:19:43;13.30;1.00
9410;DHT22;4744;52.576;13.568;2022-07-10T03:22:10;13.30;1.00
9410;DHT22;4744;52.576;13.568;2022-07-10T03:24:37;13.30;1.00
9410;DHT22;4744;52.576;13.568;2022-07-10T03:27:04;13.30;1.00
9410;DHT22;4744;52.576;13.568;2022-07-10T03:29:31;13.30;1.00
9410;DHT22;4744;52.576;13.568;2022-07-10T03:31:58;13.30;1.00
9410;DHT22;4744;52.576;13.568;2022-07-10T03:34:25;13.30;1.00
9410;DHT22;4744;52.576;13.568;2022-07-10T03:36:53;13.30;1.00
9410;DHT22;4744;52.576;13.568;2022-07-10T03:39:20;13.30;1.00
9410;DHT22;4744;52.576;13.568;2022-07-10T03:41:47;13.30;1.00
9410;DHT22;4744;52.576;13.568;2022-07-10T03:44:13;13.30;1.00
9410;DHT22;4744;52.576;13.568;2022-07-10T03:46:40;13.20;1.00
9410;DHT22;4744;52.576;13.568;2022-07-10T03:49:07;13.20;1.00
9410;DHT22;4744;52.576;13.568;2022-07-10T03:51:34;13.20;1.00
9410;DHT22;4744;52.576;13.568;2022-07-10T03:54:02;13.20;1.00
9410;DHT22;4744;52.576;13.568;2022-07-10T03:56:29;13.20;1.00
9410;DHT22;4744;52.576;13.568;2022-07-10T03:59:13;13.30;1.00
9410;DHT22;4744;52.576;13.568;2022-07-10T04:01:40;13.20;1.00
9410;DHT22;4744;52.576;13.568;2022-07-10T04:04:07;13.20;1.00
9410;DHT22;4744;52.576;13.568;2022-07-10T04:06:33;13.30;1.00
9410;DHT22;4744;52.576;13.568;2022-07-10T04:09:05;13.30;1.00
9410;DHT22;4744;52.576;13.568;2022-07-10T04:11:31;13.30;1.00
9410;DHT22;4744;52.576;13.568;2022-07-10T04:13:58;13.30;1.00
9410;DHT22;4744;52.576;13.568;2022-07-10T04:16:25;13.30;1.00
9410;DHT22;4744;52.576;13.568;2022-07-10T04:18:52;13.30;1.00
9410;DHT22;4744;52.576;13.568;2022-07-10T04:21:19;13.30;1.00
9410;DHT22;4744;52.576;13.568;2022-07-10T04:23:46;13.30;1.00
9410;DHT22;4744;52.576;13.568;2022-07-10T04:26:14;13.40;1.00
9410;DHT22;4744;52.576;13.568;2022-07-10T04:28:41;13.40;1.00
9410;DHT22;4744;52.576;13.568;2022-07-10T04:31:07;13.40;1.00
9410;DHT22;4744;52.576;13.568;2022-07-10T04:33:34;13.40;1.00
9410;DHT22;4744;52.576;13.568;2022-07-10T04:36:01;13.30;1.00
9410;DHT22;4744;52.576;13.568;2022-07-10T04:38:28;13.30;1.00
9410;DHT22;4744;52.576;13.568;2022-07-10T04:40:57;13.40;1.00
9410;DHT22;4744;52.576;13.568;2022-07-10T04:43:25;13.40;1.00
9410;DHT22;4744;52.576;13.568;2022-07-10T04:45:52;13.40;1.00
9410;DHT22;4744;52.576;13.568;2022-07-10T04:48:18;13.40;1.00
9410;DHT22;4744;52.576;13.568;2022-07-10T04:50:45;13.40;1.00
9410;DHT22;4744;52.576;13.568;2022-07-10T04:53:12;13.40;1.00
9410;DHT22;4744;52.576;13.568;2022-07-10T04:55:39;13.50;1.00
9410;DHT22;4744;52.576;13.568;2022-07-10T04:58:06;13.50;1.00
9410;DHT22;4744;52.576;13.568;2022-07-10T05:00:34;13.50;1.00
9410;DHT22;4744;52.576;13.568;2022-07-10T05:03:01;13.60;1.00
9410;DHT22;4744;52.576;13.568;2022-07-10T05:05:27;13.60;1.00
9410;DHT22;4744;52.576;13.568;2022-07-10T05:07:54;13.60;1.00
9410;DHT22;4744;52.576;13.568;2022-07-10T05:10:21;13.60;1.00
9410;DHT22;4744;52.576;13.568;2022-07-10T05:12:48;13.60;1.00
9410;DHT22;4744;52.576;13.568;2022-07-10T05:15:15;13.60;1.00
9410;DHT22;4744;52.576;13.568;2022-07-10T05:17:43;13.60;1.00
9410;DHT22;4744;52.576;13.568;2022-07-10T05:20:11;13.60;1.00
9410;DHT22;4744;52.576;13.568;2022-07-10T05:22:37;13.60;1.00
9410;DHT22;4744;52.576;13.568;2022-07-10T05:25:04;13.60;1.00
9410;DHT22;4744;52.576;13.568;2022-07-10T05:27:32;13.70;1.00
9410;DHT22;4744;52.576;13.568;2022-07-10T05:29:59;13.70;1.00
9410;DHT22;4744;52.576;13.568;2022-07-10T05:32:26;13.70;1.00
9410;DHT22;4744;52.576;13.568;2022-07-10T05:34:56;13.70;1.00
9410;DHT22;4744;52.576;13.568;2022-07-10T05:37:23;13.70;1.00
9410;DHT22;4744;52.576;13.568;2022-07-10T05:39:50;13.70;1.00
9410;DHT22;4744;52.576;13.568;2022-07-10T05:42:17;13.80;1.00
9410;DHT22;4744;52.576;13.568;2022-07-10T05:44:43;13.90;1.00
9410;DHT22;4744;52.576;13.568;2022-07-10T05:47:10;13.90;1.00
9410;DHT22;4744;52.576;13.568;2022-07-10T05:49:38;14.00;1.00
9410;DHT22;4744;52.576;13.568;2022-07-10T05:52:06;14.00;1.00
9410;DHT22;4744;52.576;13.568;2022-07-10T05:54:33;14.00;1.00
9410;DHT22;4744;52.576;13.568;2022-07-10T05:57:00;14.10;1.00
9410;DHT22;4744;52.576;13.568;2022-07-10T05:59:27;14.10;1.00
9410;DHT22;4744;52.576;13.568;2022-07-10T06:01:53;14.10;1.00
9410;DHT22;4744;52.576;13.568;2022-07-10T06:04:20;14.20;1.00
9410;DHT22;4744;52.576;13.568;2022-07-10T06:06:47;14.20;1.00
9410;DHT22;4744;52.576;13.568;2022-07-10T06:09:15;14.30;1.00
9410;DHT22;4744;52.576;13.568;2022-07-10T06:11:42;14.30;1.00
9410;DHT22;4744;52.576;13.568;2022-07-10T06:14:11;14.40;1.00
9410;DHT22;4744;52.576;13.568;2022-07-10T06:16:38;14.40;1.00
9410;DHT22;4744;52.576;13.568;2022-07-10T06:19:04;14.40;1.00
9410;DHT22;4744;52.576;13.568;2022-07-10T06:21:31;14.50;1.00
9410;DHT22;4744;52.576;13.568;2022-07-10T06:23:58;14.50;1.00
9410;DHT22;4744;52.576;13.568;2022-07-10T06:26:26;14.50;1.00
9410;DHT22;4744;52.576;13.568;2022-07-10T06:28:53;14.60;1.00
9410;DHT22;4744;52.576;13.568;2022-07-10T06:31:20;14.70;1.00
9410;DHT22;4744;52.576;13.568;2022-07-10T06:33:47;14.70;1.00
9410;DHT22;4744;52.576;13.568;2022-07-10T06:36:14;14.70;1.00
9410;DHT22;4744;52.576;13.568;2022-07-10T06:38:41;14.70;1.00
9410;DHT22;4744;52.576;13.568;2022-07-10T06:41:08;14.80;1.00
9410;DHT22;4744;52.576;13.568;2022-07-10T06:43:36;14.90;1.00
9410;DHT22;4744;52.576;13.568;2022-07-10T06:46:03;14.90;1.00
9410;DHT22;4744;52.576;13.568;2022-07-10T06:48:30;14.90;1.00
9410;DHT22;4744;52.576;13.568;2022-07-10T06:50:58;15.00;1.00
9410;DHT22;4744;52.576;13.568;2022-07-10T06:53:24;15.00;1.00
9410;DHT22;4744;52.576;13.568;2022-07-10T06:55:52;15.10;1.00
9410;DHT22;4744;52.576;13.568;2022-07-10T06:58:20;15.20;1.00
9410;DHT22;4744;52.576;13.568;2022-07-10T07:00:48;15.20;1.00
9410;DHT22;4744;52.576;13.568;2022-07-10T07:03:14;15.20;1.00
9410;DHT22;4744;52.576;13.568;2022-07-10T07:05:41;15.30;1.00
9410;DHT22;4744;52.576;13.568;2022-07-10T07:08:08;15.30;1.00
9410;DHT22;4744;52.576;13.568;2022-07-10T07:10:35;15.30;1.00
9410;DHT22;4744;52.576;13.568;2022-07-10T07:13:02;15.40;1.00
9410;DHT22;4744;52.576;13.568;2022-07-10T07:15:29;15.40;1.00
9410;DHT22;4744;52.576;13.568;2022-07-10T07:17:57;15.50;1.00
9410;DHT22;4744;52.576;13.568;2022-07-10T07:20:33;15.50;1.00
9410;DHT22;4744;52.576;13.568;2022-07-10T07:23:18;15.60;1.00
9410;DHT22;4744;52.576;13.568;2022-07-10T07:25:44;15.70;1.00
9410;DHT22;4744;52.576;13.568;2022-07-10T07:28:13;15.70;1.00
9410;DHT22;4744;52.576;13.568;2022-07-10T07:30:41;15.70;1.00
9410;DHT22;4744;52.576;13.568;2022-07-10T07:33:09;15.60;1.00
9410;DHT22;4744;52.576;13.568;2022-07-10T07:35:36;15.50;1.00
9410;DHT22;4744;52.576;13.568;2022-07-10T07:38:03;15.60;1.00
9410;DHT22;4744;52.576;13.568;2022-07-10T07:40:31;15.50;1.00
9410;DHT22;4744;52.576;13.568;2022-07-10T07:42:59;15.40;1.00
9410;DHT22;4744;52.576;13.568;2022-07-10T07:45:26;15.40;1.00
9410;DHT22;4744;52.576;13.568;2022-07-10T07:47:55;15.40;1.00
9410;DHT22;4744;52.576;13.568;2022-07-10T07:50:24;15.50;1.00
9410;DHT22;4744;52.576;13.568;2022-07-10T07:52:52;15.50;1.00
9410;DHT22;4744;52.576;13.568;2022-07-10T07:55:20;15.50;1.00
9410;DHT22;4744;52.576;13.568;2022-07-10T07:57:48;15.40;1.00
9410;DHT22;4744;52.576;13.568;2022-07-10T08:00:17;15.40;1.00
9410;DHT22;4744;52.576;13.568;2022-07-10T08:02:44;15.40;1.00
9410;DHT22;4744;52.576;13.568;2022-07-10T08:05:10;15.50;1.00
9410;DHT22;4744;52.576;13.568;2022-07-10T08:07:40;15.50;1.00
9410;DHT22;4744;52.576;13.568;2022-07-10T08:10:08;15.60;1.00
9410;DHT22;4744;52.576;13.568;2022-07-10T08:12:35;15.60;1.00
9410;DHT22;4744;52.576;13.568;2022-07-10T08:15:03;15.60;1.00
9410;DHT22;4744;52.576;13.568;2022-07-10T08:17:30;15.60;1.00
9410;DHT22;4744;52.576;13.568;2022-07-10T08:19:56;15.60;1.00
9410;DHT22;4744;52.576;13.568;2022-07-10T08:22:23;15.50;1.00
9410;DHT22;4744;52.576;13.568;2022-07-10T08:24:51;15.50;1.00
9410;DHT22;4744;52.576;13.568;2022-07-10T08:27:18;15.50;1.00
9410;DHT22;4744;52.576;13.568;2022-07-10T08:29:45;15.60;1.00
9410;DHT22;4744;52.576;13.568;2022-07-10T08:32:12;15.50;1.00
9410;DHT22;4744;52.576;13.568;2022-07-10T08:34:39;15.50;1.00
9410;DHT22;4744;52.576;13.568;2022-07-10T08:37:05;15.50;1.00
9410;DHT22;4744;52.576;13.568;2022-07-10T08:39:33;15.50;1.00
9410;DHT22;4744;52.576;13.568;2022-07-10T08:42:02;15.60;1.00
9410;DHT22;4744;52.576;13.568;2022-07-10T08:44:31;15.60;1.00
9410;DHT22;4744;52.576;13.568;2022-07-10T08:46:57;15.70;1.00
9410;DHT22;4744;52.576;13.568;2022-07-10T08:49:27;15.80;1.00
9410;DHT22;4744;52.576;13.568;2022-07-10T08:51:58;15.80;1.00
9410;DHT22;4744;52.576;13.568;2022-07-10T08:54:28;15.90;1.00
9410;DHT22;4744;52.576;13.568;2022-07-10T08:56:57;15.90;1.00
9410;DHT22;4744;52.576;13.568;2022-07-10T08:59:26;16.00;1.00
9410;DHT22;4744;52.576;13.568;2022-07-10T09:01:53;16.10;1.00
9410;DHT22;4744;52.576;13.568;2022-07-10T09:04:21;16.10;1.00
9410;DHT22;4744;52.576;13.568;2022-07-10T09:06:48;16.20;1.00
9410;DHT22;4744;52.576;13.568;2022-07-10T09:09:16;16.30;1.00
9410;DHT22;4744;52.576;13.568;2022-07-10T09:11:43;16.40;1.00
9410;DHT22;4744;52.576;13.568;2022-07-10T09:14:13;16.40;1.00
9410;DHT22;4744;52.576;13.568;2022-07-10T09:16:43;16.50;1.00
9410;DHT22;4744;52.576;13.568;2022-07-10T09:19:18;16.50;1.00
9410;DHT22;4744;52.576;13.568;2022-07-10T09:21:46;16.60;1.00
9410;DHT22;4744;52.576;13.568;2022-07-10T09:24:14;16.70;1.00
9410;DHT22;4744;52.576;13.568;2022-07-10T09:26:43;16.70;1.00
9410;DHT22;4744;52.576;13.568;2022-07-10T09:29:13;16.80;1.00
9410;DHT22;4744;52.576;13.568;2022-07-10T09:31:52;16.80;1.00
9410;DHT22;4744;52.576;13.568;2022-07-10T09:34:35;16.80;1.00
9410;DHT22;4744;52.576;13.568;2022-07-10T09:37:19;16.80;1.00
9410;DHT22;4744;52.576;13.568;2022-07-10T09:39:54;16.80;1.00
9410;DHT22;4744;52.576;13.568;2022-07-10T09:42:25;16.80;1.00
9410;DHT22;4744;52.576;13.568;2022-07-10T09:44:52;17.00;1.00
9410;DHT22;4744;52.576;13.568;2022-07-10T09:47:23;17.00;1.00
9410;DHT22;4744;52.576;13.568;2022-07-10T09:49:50;17.10;1.00
9410;DHT22;4744;52.576;13.568;2022-07-10T09:52:18;17.10;1.00
9410;DHT22;4744;52.576;13.568;2022-07-10T09:54:45;17.10;1.00
9410;DHT22;4744;52.576;13.568;2022-07-10T09:57:13;17.00;1.00
9410;DHT22;4744;52.576;13.568;2022-07-10T09:59:42;17.00;1.00
9410;DHT22;4744;52.576;13.568;2022-07-10T10:02:10;17.10;1.00
9410;DHT22;4744;52.576;13.568;2022-07-10T10:04:39;17.10;1.00
9410;DHT22;4744;52.576;13.568;2022-07-10T10:07:11;17.10;1.00
9410;DHT22;4744;52.576;13.568;2022-07-10T10:09:41;17.10;1.00
9410;DHT22;4744;52.576;13.568;2022-07-10T10:12:15;17.20;1.00
9410;DHT22;4744;52.576;13.568;2022-07-10T10:14:46;17.30;1.00
9410;DHT22;4744;52.576;13.568;2022-07-10T10:17:16;17.40;1.00
9410;DHT22;4744;52.576;13.568;2022-07-10T10:19:45;17.50;1.00
9410;DHT22;4744;52.576;13.568;2022-07-10T10:22:33;17.50;1.00
9410;DHT22;4744;52.576;13.568;2022-07-10T10:25:01;17.50;1.00
9410;DHT22;4744;52.576;13.568;2022-07-10T10:27:29;17.60;1.00
9410;DHT22;4744;52.576;13.568;2022-07-10T10:29:56;17.60;1.00
9410;DHT22;4744;52.576;13.568;2022-07-10T10:32:23;17.60;1.00
9410;DHT22;4744;52.576;13.568;2022-07-10T10:34:51;17.60;1.00
9410;DHT22;4744;52.576;13.568;2022-07-10T10:37:43;17.60;1.00
9410;DHT22;4744;52.576;13.568;2022-07-10T10:40:31;17.70;1.00
9410;DHT22;4744;52.576;13.568;2022-07-10T10:42:58;17.70;1.00
9410;DHT22;4744;52.576;13.568;2022-07-10T10:45:31;17.80;1.00
9410;DHT22;4744;52.576;13.568;2022-07-10T10:47:59;17.80;1.00
9410;DHT22;4744;52.576;13.568;2022-07-10T10:50:41;17.90;1.00
9410;DHT22;4744;52.576;13.568;2022-07-10T10:53:15;18.00;1.00
9410;DHT22;4744;52.576;13.568;2022-07-10T10:58:44;17.80;1.00
9410;DHT22;4744;52.576;13.568;2022-07-10T11:01:25;17.70;1.00
9410;DHT22;4744;52.576;13.568;2022-07-10T11:04:17;17.70;1.00
9410;DHT22;4744;52.576;13.568;2022-07-10T11:06:47;17.70;1.00
9410;DHT22;4744;52.576;13.568;2022-07-10T11:09:25;17.70;1.00
9410;DHT22;4744;52.576;13.568;2022-07-10T11:12:03;17.70;1.00
9410;DHT22;4744;52.576;13.568;2022-07-10T11:14:31;17.70;1.00
9410;DHT22;4744;52.576;13.568;2022-07-10T11:16:59;17.70;1.00
9410;DHT22;4744;52.576;13.568;2022-07-10T11:19:28;17.70;1.00
9410;DHT22;4744;52.576;13.568;2022-07-10T11:25:20;17.80;1.00
9410;DHT22;4744;52.576;13.568;2022-07-10T11:28:04;17.90;1.00
9410;DHT22;4744;52.576;13.568;2022-07-10T11:30:47;18.00;1.00
9410;DHT22;4744;52.576;13.568;2022-07-10T11:33:14;18.00;1.00
9410;DHT22;4744;52.576;13.568;2022-07-10T11:35:44;18.10;1.00
9410;DHT22;4744;52.576;13.568;2022-07-10T11:38:13;18.30;1.00
9410;DHT22;4744;52.576;13.568;2022-07-10T11:40:44;18.50;1.00
9410;DHT22;4744;52.576;13.568;2022-07-10T11:43:11;18.80;1.00
9410;DHT22;4744;52.576;13.568;2022-07-10T11:45:42;19.00;1.00
9410;DHT22;4744;52.576;13.568;2022-07-10T11:48:16;19.40;1.00
9410;DHT22;4744;52.576;13.568;2022-07-10T11:50:44;19.50;1.00
9410;DHT22;4744;52.576;13.568;2022-07-10T11:53:12;19.40;1.00
9410;DHT22;4744;52.576;13.568;2022-07-10T11:55:39;19.40;1.00
9410;DHT22;4744;52.576;13.568;2022-07-10T11:58:14;19.30;1.00
9410;DHT22;4744;52.576;13.568;2022-07-10T12:00:42;19.30;1.00
9410;DHT22;4744;52.576;13.568;2022-07-10T12:03:19;19.20;1.00
9410;DHT22;4744;52.576;13.568;2022-07-10T12:05:47;19.30;1.00
9410;DHT22;4744;52.576;13.568;2022-07-10T12:08:16;19.10;1.00
9410;DHT22;4744;52.576;13.568;2022-07-10T12:10:44;18.80;1.00
9410;DHT22;4744;52.576;13.568;2022-07-10T12:13:13;18.50;1.00
9410;DHT22;4744;52.576;13.568;2022-07-10T12:15:41;18.40;1.00
9410;DHT22;4744;52.576;13.568;2022-07-10T12:18:11;18.30;1.00
9410;DHT22;4744;52.576;13.568;2022-07-10T12:20:41;18.30;1.00
9410;DHT22;4744;52.576;13.568;2022-07-10T12:23:11;18.30;1.00
9410;DHT22;4744;52.576;13.568;2022-07-10T12:25:43;18.40;1.00
9410;DHT22;4744;52.576;13.568;2022-07-10T12:30:45;18.60;1.00
9410;DHT22;4744;52.576;13.568;2022-07-10T12:33:14;18.80;1.00
9410;DHT22;4744;52.576;13.568;2022-07-10T12:35:50;19.10;1.00
9410;DHT22;4744;52.576;13.568;2022-07-10T12:38:18;19.40;1.00
9410;DHT22;4744;52.576;13.568;2022-07-10T12:40:46;19.40;1.00
9410;DHT22;4744;52.576;13.568;2022-07-10T12:43:24;19.30;1.00
9410;DHT22;4744;52.576;13.568;2022-07-10T12:46:09;19.10;1.00
9410;DHT22;4744;52.576;13.568;2022-07-10T12:48:36;18.90;1.00
9410;DHT22;4744;52.576;13.568;2022-07-10T12:51:25;18.90;1.00
9410;DHT22;4744;52.576;13.568;2022-07-10T12:53:53;18.70;1.00
9410;DHT22;4744;52.576;13.568;2022-07-10T12:56:34;18.80;1.00
9410;DHT22;4744;52.576;13.568;2022-07-10T12:59:03;19.10;1.00
9410;DHT22;4744;52.576;13.568;2022-07-10T13:01:39;19.40;1.00
9410;DHT22;4744;52.576;13.568;2022-07-10T13:04:07;19.40;1.00
9410;DHT22;4744;52.576;13.568;2022-07-10T13:06:36;19.40;1.00
9410;DHT22;4744;52.576;13.568;2022-07-10T13:09:03;19.10;1.00
9410;DHT22;4744;52.576;13.568;2022-07-10T13:11:45;18.90;1.00
9410;DHT22;4744;52.576;13.568;2022-07-10T13:14:12;18.90;1.00
9410;DHT22;4744;52.576;13.568;2022-07-10T13:16:39;19.10;1.00
9410;DHT22;4744;52.576;13.568;2022-07-10T13:19:06;19.30;1.00
9410;DHT22;4744;52.576;13.568;2022-07-10T13:21:33;19.40;1.00
9410;DHT22;4744;52.576;13.568;2022-07-10T13:23:59;19.70;1.00
9410;DHT22;4744;52.576;13.568;2022-07-10T13:26:26;19.60;1.00
9410;DHT22;4744;52.576;13.568;2022-07-10T13:28:56;19.30;1.00
9410;DHT22;4744;52.576;13.568;2022-07-10T13:31:24;19.20;1.00
9410;DHT22;4744;52.576;13.568;2022-07-10T13:33:51;19.20;1.00
9410;DHT22;4744;52.576;13.568;2022-07-10T13:36:18;19.20;1.00
9410;DHT22;4744;52.576;13.568;2022-07-10T13:38:45;19.20;1.00
9410;DHT22;4744;52.576;13.568;2022-07-10T13:41:14;19.30;1.00
9410;DHT22;4744;52.576;13.568;2022-07-10T13:43:40;19.40;1.00
9410;DHT22;4744;52.576;13.568;2022-07-10T13:46:09;19.60;1.00
9410;DHT22;4744;52.576;13.568;2022-07-10T13:48:35;19.60;1.00
9410;DHT22;4744;52.576;13.568;2022-07-10T13:51:03;19.40;1.00
9410;DHT22;4744;52.576;13.568;2022-07-10T13:53:29;19.30;1.00
9410;DHT22;4744;52.576;13.568;2022-07-10T13:55:56;19.20;1.00
9410;DHT22;4744;52.576;13.568;2022-07-10T13:58:24;19.00;1.00
9410;DHT22;4744;52.576;13.568;2022-07-10T14:00:51;18.90;1.00
9410;DHT22;4744;52.576;13.568;2022-07-10T14:03:19;18.80;1.00
9410;DHT22;4744;52.576;13.568;2022-07-10T14:05:46;18.70;1.00
9410;DHT22;4744;52.576;13.568;2022-07-10T14:08:13;18.70;1.00
9410;DHT22;4744;52.576;13.568;2022-07-10T14:10:40;18.90;1.00
9410;DHT22;4744;52.576;13.568;2022-07-10T14:13:07;19.00;1.00
9410;DHT22;4744;52.576;13.568;2022-07-10T14:15:35;19.10;1.00
9410;DHT22;4744;52.576;13.568;2022-07-10T14:18:01;19.00;1.00
9410;DHT22;4744;52.576;13.568;2022-07-10T14:20:30;18.90;1.00
9410;DHT22;4744;52.576;13.568;2022-07-10T14:23:17;18.90;1.00
9410;DHT22;4744;52.576;13.568;2022-07-10T14:25:44;19.10;1.00
9410;DHT22;4744;52.576;13.568;2022-07-10T14:28:11;19.30;1.00
9410;DHT22;4744;52.576;13.568;2022-07-10T14:30:38;19.50;1.00
9410;DHT22;4744;52.576;13.568;2022-07-10T14:33:05;19.70;1.00
9410;DHT22;4744;52.576;13.568;2022-07-10T14:35:34;19.80;1.00
9410;DHT22;4744;52.576;13.568;2022-07-10T14:38:01;19.90;1.00
9410;DHT22;4744;52.576;13.568;2022-07-10T14:40:28;19.90;1.00
9410;DHT22;4744;52.576;13.568;2022-07-10T14:42:55;19.90;1.00
9410;DHT22;4744;52.576;13.568;2022-07-10T14:45:23;19.80;1.00
9410;DHT22;4744;52.576;13.568;2022-07-10T14:47:51;19.80;1.00
9410;DHT22;4744;52.576;13.568;2022-07-10T14:50:18;19.70;1.00
9410;DHT22;4744;52.576;13.568;2022-07-10T14:52:46;19.70;1.00
9410;DHT22;4744;52.576;13.568;2022-07-10T14:55:13;19.80;1.00
9410;DHT22;4744;52.576;13.568;2022-07-10T14:57:39;19.80;1.00
9410;DHT22;4744;52.576;13.568;2022-07-10T15:00:07;19.70;1.00
9410;DHT22;4744;52.576;13.568;2022-07-10T15:02:34;19.70;1.00
9410;DHT22;4744;52.576;13.568;2022-07-10T15:05:01;19.80;1.00
9410;DHT22;4744;52.576;13.568;2022-07-10T15:07:29;19.90;1.00
9410;DHT22;4744;52.576;13.568;2022-07-10T15:09:57;19.90;1.00
9410;DHT22;4744;52.576;13.568;2022-07-10T15:12:24;19.90;1.00
9410;DHT22;4744;52.576;13.568;2022-07-10T15:14:51;19.80;1.00
9410;DHT22;4744;52.576;13.568;2022-07-10T15:17:18;19.70;1.00
9410;DHT22;4744;52.576;13.568;2022-07-10T15:19:45;19.60;1.00
9410;DHT22;4744;52.576;13.568;2022-07-10T15:22:12;19.50;1.00
9410;DHT22;4744;52.576;13.568;2022-07-10T15:24:39;19.40;1.00
9410;DHT22;4744;52.576;13.568;2022-07-10T15:27:10;19.30;1.00
9410;DHT22;4744;52.576;13.568;2022-07-10T15:29:38;19.20;1.00
9410;DHT22;4744;52.576;13.568;2022-07-10T15:32:06;19.20;1.00
9410;DHT22;4744;52.576;13.568;2022-07-10T15:34:33;19.20;1.00
9410;DHT22;4744;52.576;13.568;2022-07-10T15:37:00;19.30;1.00
9410;DHT22;4744;52.576;13.568;2022-07-10T15:39:27;19.50;1.00
9410;DHT22;4744;52.576;13.568;2022-07-10T15:41:53;19.70;1.00
9410;DHT22;4744;52.576;13.568;2022-07-10T15:44:21;19.80;1.00
9410;DHT22;4744;52.576;13.568;2022-07-10T15:46:49;19.90;1.00
9410;DHT22;4744;52.576;13.568;2022-07-10T15:49:16;20.00;1.00
9410;DHT22;4744;52.576;13.568;2022-07-10T15:51:42;20.10;1.00
9410;DHT22;4744;52.576;13.568;2022-07-10T15:54:09;20.10;1.00
9410;DHT22;4744;52.576;13.568;2022-07-10T15:56:36;20.10;1.00
9410;DHT22;4744;52.576;13.568;2022-07-10T15:59:03;19.90;1.00
9410;DHT22;4744;52.576;13.568;2022-07-10T16:01:31;19.80;1.00
9410;DHT22;4744;52.576;13.568;2022-07-10T16:03:57;19.60;1.00
9410;DHT22;4744;52.576;13.568;2022-07-10T16:06:24;19.50;1.00
9410;DHT22;4744;52.576;13.568;2022-07-10T16:08:52;19.40;1.00
9410;DHT22;4744;52.576;13.568;2022-07-10T16:11:19;19.40;1.00
9410;DHT22;4744;52.576;13.568;2022-07-10T16:13:47;19.40;1.00
9410;DHT22;4744;52.576;13.568;2022-07-10T16:16:14;19.50;1.00
9410;DHT22;4744;52.576;13.568;2022-07-10T16:18:43;19.60;1.00